• Join FlightAware (Why Join?)
  • Login
  • US Flag 
03:08PM EST


 

Airport Tracker/Info


-or-


 

Live Flight TrackerFlight Track Log ✈ N960DL ✈ 27-Apr-2013 ✈ KATL - MYNN / NAS

Flight Track Log - Related Links

Times and Time Zones

All times are in EDT time to prevent confusion due to time zone crossing. See the N960DL flight status page for this flight to view local times or setup timezone preferences in your user account.

Time Position Orientation Groundspeed Altitude Reporting Facility
EDT Latitude Longitude Course Direction KTS MPH feet Rate Location/Type
10:43AM 33.6333 -84.3833 107° East 173 199 2,200  Level Atlanta TRACON
10:44AM 33.6167 -84.3167 107° East 245 282 4,200 2,280 Climbing Atlanta TRACON
10:45AM 33.5500 -84.2833 157° South 257 296 7,000 2,460 Climbing Atlanta TRACON
10:46AM 33.4833 -84.2833 180° South 280 322 9,400 1,800 Climbing Atlanta TRACON
10:48AM 33.3411 -84.2403 166° South 314 361 12,100 1,560 Climbing Atlanta Center
10:49AM 33.2597 -84.1506 137° Southeast 360 414 13,900 1,740 Climbing Atlanta Center
10:50AM 33.1703 -84.0636 141° Southeast 407 468 15,600 1,980 Climbing Atlanta Center
10:51AM 33.0742 -83.9694 141° Southeast 440 506 17,900 1,740 Climbing Atlanta Center
10:52AM 32.9697 -83.8828 145° Southeast 448 516 19,100 1,560 Climbing Atlanta Center
10:53AM 32.8631 -83.7914 144° Southeast 459 528 21,100 1,740 Climbing Atlanta Center
10:54AM 32.7542 -83.7006 145° Southeast 477 549 22,600 1,500 Climbing Atlanta Center
10:55AM 32.6475 -83.6047 143° Southeast 482 555 24,100 1,620 Climbing Atlanta Center
10:57AM 32.4225 -83.3750 139° Southeast 482 555 27,800 1,560 Climbing Jacksonville Center
10:58AM 32.3225 -83.2736 139° Southeast 482 555 29,200 1,380 Climbing Jacksonville Center
10:59AM 32.2183 -83.1725 141° Southeast 482 555 30,600 1,200 Climbing Jacksonville Center
11:00AM 32.1081 -83.0642 140° Southeast 476 548 31,700 660 Climbing Jacksonville Center
11:01AM 32.0058 -82.9636 140° Southeast 476 548 32,000 120 Climbing Jacksonville Center
11:02AM 31.9056 -82.8656 140° Southeast 476 548 32,000  Level Jacksonville Center
11:03AM 31.8031 -82.7728 142° Southeast 476 548 32,000  Level Jacksonville Center
11:04AM 31.6903 -82.6922 149° Southeast 476 548 32,000  Level Jacksonville Center
11:05AM 31.5817 -82.6194 150° Southeast 464 534 32,000  Level Jacksonville Center
11:06AM 31.4686 -82.5442 150° Southeast 464 534 32,000  Level Jacksonville Center
11:07AM 31.3558 -82.4669 150° Southeast 464 534 32,000  Level Jacksonville Center
11:08AM 31.2553 -82.4017 151° Southeast 464 534 32,000  Level Jacksonville Center
11:09AM 31.1442 -82.3294 151° Southeast 464 534 32,000  Level Jacksonville Center
11:10AM 31.0311 -82.2525 150° Southeast 464 534 32,000  Level Jacksonville Center
11:11AM 30.9200 -82.1783 150° Southeast 464 534 32,000  Level Jacksonville Center
11:12AM 30.8089 -82.1042 150° Southeast 464 534 32,000  Level Jacksonville Center
11:13AM 30.6978 -82.0300 150° Southeast 464 534 32,000  Level Jacksonville Center
11:14AM 30.5889 -81.9564 150° Southeast 464 534 32,000  Level Jacksonville Center
11:15AM 30.4775 -81.8753 148° Southeast 469 540 32,000  Level Jacksonville Center
11:16AM 30.3642 -81.7994 150° Southeast 469 540 32,000  Level Jacksonville Center
11:17AM 30.2550 -81.7286 151° Southeast 464 534 32,000  Level Jacksonville Center
11:18AM 30.1311 -81.6486 151° Southeast 464 534 32,000  Level Jacksonville Center
11:19AM 30.0300 -81.5561 142° Southeast 464 534 32,000  Level Jacksonville Center
11:20AM 29.9306 -81.4569 139° Southeast 470 541 32,000  Level Jacksonville Center
11:21AM 29.8336 -81.3625 140° Southeast 470 541 32,000  Level Jacksonville Center
11:22AM 29.7322 -81.2639 140° Southeast 470 541 32,000  Level Jacksonville Center
11:23AM 29.6306 -81.1700 141° Southeast 470 541 32,000  Level Jacksonville Center
11:24AM 29.5311 -81.0761 141° Southeast 470 541 32,000  Level Jacksonville Center
11:25AM 29.4317 -80.9778 139° Southeast 470 541 32,000  Level Jacksonville Center
11:27AM 29.2925 -80.8464 141° Southeast 490 564 32,000  Level Miami Center
11:28AM 29.1928 -80.7525 141° Southeast 479 551 32,000  Level Miami Center
11:29AM 29.0956 -80.6539 138° Southeast 474 545 32,000  Level Miami Center
11:30AM 28.9978 -80.5581 139° Southeast 474 545 32,000  Level Miami Center
11:31AM 28.8981 -80.4600 139° Southeast 469 540 32,000  Level Miami Center
11:32AM 28.7983 -80.3667 141° Southeast 469 540 32,000  Level Miami Center
11:33AM 28.7106 -80.2789 139° Southeast 469 540 32,000  Level Miami Center
11:34AM 28.6128 -80.1836 139° Southeast 463 533 32,000  Level Miami Center
11:35AM 28.5025 -80.0811 141° Southeast 469 540 32,000  Level Miami Center
11:36AM 28.4044 -79.9861 140° Southeast 469 540 32,000  Level Miami Center
11:37AM 28.3042 -79.8892 140° Southeast 469 540 32,000  Level Miami Center
11:38AM 28.2039 -79.7944 140° Southeast 469 540 32,000  Level Miami Center
11:39AM 28.1033 -79.7000 140° Southeast 469 540 32,000  Level Miami Center
11:40AM 28.0008 -79.6058 141° Southeast 469 540 32,000  Level Miami Center
11:41AM 27.9025 -79.5094 139° Southeast 469 540 32,000  Level Miami Center
11:42AM 27.8039 -79.4203 141° Southeast 463 533 32,000  Level Miami Center
11:43AM 27.7136 -79.3361 140° Southeast 468 539 32,000  Level Miami Center
11:44AM 27.6044 -79.2331 140° Southeast 468 539 32,000  Level Miami Center
11:45AM 27.5039 -79.1397 141° Southeast 468 539 32,000  Level Miami Center
11:46AM 27.4050 -79.0464 140° Southeast 468 539 32,000  Level Miami Center
11:47AM 27.3164 -78.9628 140° Southeast 468 539 32,000 -300 Level Miami Center
11:48AM 27.2133 -78.8675 141° Southeast 468 539 31,400 -960 Descending Miami Center
11:49AM 27.1061 -78.7700 141° Southeast 462 532 30,100 -900 Descending Miami Center
11:50AM 27.0008 -78.6750 141° Southeast 475 547 29,600 -720 Descending Miami Center
11:51AM 26.9081 -78.5758 136° Southeast 469 540 28,700 -1,080 Descending Miami Center
11:52AM 26.8594 -78.4400 112° Southeast 456 525 27,500 -840 Descending Miami Center
11:53AM 26.8253 -78.3069 106° East 456 525 27,100 -420 Descending Miami Center
11:54AM 26.7867 -78.1761 108° East 468 539 26,700 -420 Descending Miami Center
11:55AM 26.7503 -78.0314 106° East 468 539 26,300 -420 Descending Miami Center
11:56AM 26.7075 -77.8867 108° East 457 526 25,900 -480 Descending Miami Center
11:57AM 26.6647 -77.7539 110° East 451 519 25,400 -600 Descending Miami Center
11:58AM 26.5689 -77.6625 140° Southeast 431 496 24,800 -840 Descending Miami Center
11:59AM 26.4439 -77.6431 172° South 410 472 23,800 -1,140 Descending Miami Center
12:00PM 26.3269 -77.6214 171° South 424 488 22,600 -1,200 Descending Miami Center
12:01PM 26.2206 -77.5975 169° South 410 472 21,500 -1,200 Descending Miami Center
12:02PM 26.1222 -77.5786 170° South 383 441 20,300 -1,560 Descending Miami Center
12:03PM 26.0283 -77.5594 170° South 363 418 18,500 -1,680 Descending Miami Center
12:04PM 25.9344 -77.5381 168° South 351 404 17,000 -1,500 Descending Miami Center
12:05PM 25.8447 -77.5192 169° South 341 392 15,600 -1,620 Descending Miami Center
12:06PM 25.7592 -77.4978 167° South 331 381 13,800 -1,800 Descending Miami Center
12:07PM 25.6714 -77.4975 180° South 326 375 12,100 -1,680 Descending Miami Center
12:08PM 25.5833 -77.5247 196° South 320 368 10,500 -1,620 Descending Miami Center
12:10PM 25.3812 -77.4667 180° South  Level FlightAware Approximate
12:17PM 25.0333 -77.4500 170° South  Level FlightAware Approximate
12:18PM 25.0390 -77.4662 170° South  Level Estimated